sensor_id;sensor_type;location;lat;lon;timestamp;pressure;altitude;pressure_sealevel;temperature;humidity
70930;BME280;58588;48.102;19.682;2023-01-05T00:01:30;99760.63;;;6.84;100.00
70930;BME280;58588;48.102;19.682;2023-01-05T00:04:32;99733.28;;;6.80;100.00
70930;BME280;58588;48.102;19.682;2023-01-05T00:07:34;99736.59;;;6.74;100.00
70930;BME280;58588;48.102;19.682;2023-01-05T00:10:37;99736.75;;;6.73;100.00
70930;BME280;58588;48.102;19.682;2023-01-05T00:13:58;99743.22;;;6.88;100.00
70930;BME280;58588;48.102;19.682;2023-01-05T00:17:19;99744.06;;;6.88;100.00
70930;BME280;58588;48.102;19.682;2023-01-05T00:20:38;99738.91;;;6.95;100.00
70930;BME280;58588;48.102;19.682;2023-01-05T00:23:58;99731.97;;;7.02;100.00
70930;BME280;58588;48.102;19.682;2023-01-05T00:27:00;99747.25;;;7.10;100.00
70930;BME280;58588;48.102;19.682;2023-01-05T00:30:04;99742.19;;;7.07;100.00
70930;BME280;58588;48.102;19.682;2023-01-05T00:33:07;99744.41;;;7.11;100.00
70930;BME280;58588;48.102;19.682;2023-01-05T00:36:10;99733.03;;;7.17;100.00
70930;BME280;58588;48.102;19.682;2023-01-05T00:39:12;99734.03;;;7.16;100.00
70930;BME280;58588;48.102;19.682;2023-01-05T00:42:14;99725.53;;;7.21;100.00
70930;BME280;58588;48.102;19.682;2023-01-05T00:45:18;99726.22;;;7.23;100.00
70930;BME280;58588;48.102;19.682;2023-01-05T00:48:21;99719.34;;;7.20;100.00
70930;BME280;58588;48.102;19.682;2023-01-05T00:51:23;99718.69;;;7.27;100.00
70930;BME280;58588;48.102;19.682;2023-01-05T00:54:25;99710.97;;;7.23;100.00
70930;BME280;58588;48.102;19.682;2023-01-05T00:57:27;99707.78;;;7.20;100.00
70930;BME280;58588;48.102;19.682;2023-01-05T01:00:31;99700.06;;;7.25;100.00
70930;BME280;58588;48.102;19.682;2023-01-05T01:03:33;99705.44;;;7.25;100.00
70930;BME280;58588;48.102;19.682;2023-01-05T01:06:35;99713.81;;;7.22;100.00
70930;BME280;58588;48.102;19.682;2023-01-05T01:09:37;99707.06;;;7.18;100.00
70930;BME280;58588;48.102;19.682;2023-01-05T01:12:40;99712.81;;;7.23;100.00
70930;BME280;58588;48.102;19.682;2023-01-05T01:15:43;99712.44;;;7.18;100.00
70930;BME280;58588;48.102;19.682;2023-01-05T01:18:45;99721.44;;;7.09;100.00
70930;BME280;58588;48.102;19.682;2023-01-05T01:21:47;99715.00;;;7.02;100.00
70930;BME280;58588;48.102;19.682;2023-01-05T01:24:50;99725.97;;;7.08;100.00
70930;BME280;58588;48.102;19.682;2023-01-05T01:27:52;99719.81;;;7.16;100.00
70930;BME280;58588;48.102;19.682;2023-01-05T01:30:57;99700.88;;;7.17;100.00
70930;BME280;58588;48.102;19.682;2023-01-05T01:33:59;99703.69;;;7.08;100.00
70930;BME280;58588;48.102;19.682;2023-01-05T01:37:01;99687.63;;;7.16;100.00
70930;BME280;58588;48.102;19.682;2023-01-05T01:40:03;99691.63;;;7.12;100.00
70930;BME280;58588;48.102;19.682;2023-01-05T01:43:11;99685.59;;;7.10;100.00
70930;BME280;58588;48.102;19.682;2023-01-05T01:46:16;99681.72;;;7.12;100.00
70930;BME280;58588;48.102;19.682;2023-01-05T01:49:19;99680.41;;;7.08;100.00
70930;BME280;58588;48.102;19.682;2023-01-05T01:52:21;99674.22;;;7.16;100.00
70930;BME280;58588;48.102;19.682;2023-01-05T01:55:25;99673.38;;;7.15;100.00
70930;BME280;58588;48.102;19.682;2023-01-05T01:58:30;99651.13;;;7.23;100.00
70930;BME280;58588;48.102;19.682;2023-01-05T02:01:34;99655.53;;;7.32;100.00
70930;BME280;58588;48.102;19.682;2023-01-05T02:04:36;99642.44;;;7.29;100.00
70930;BME280;58588;48.102;19.682;2023-01-05T02:07:43;99638.09;;;7.28;100.00
70930;BME280;58588;48.102;19.682;2023-01-05T02:10:56;99623.69;;;7.37;100.00
70930;BME280;58588;48.102;19.682;2023-01-05T02:14:14;99622.56;;;7.40;100.00
70930;BME280;58588;48.102;19.682;2023-01-05T02:17:29;99613.66;;;7.39;100.00
70930;BME280;58588;48.102;19.682;2023-01-05T02:20:58;99603.44;;;7.43;100.00
70930;BME280;58588;48.102;19.682;2023-01-05T02:27:48;99584.19;;;7.56;100.00
70930;BME280;58588;48.102;19.682;2023-01-05T02:31:08;99570.09;;;7.45;100.00
70930;BME280;58588;48.102;19.682;2023-01-05T02:34:19;99569.44;;;7.51;100.00
70930;BME280;58588;48.102;19.682;2023-01-05T02:37:26;99564.25;;;7.50;100.00
70930;BME280;58588;48.102;19.682;2023-01-05T02:40:34;99562.06;;;7.45;100.00
70930;BME280;58588;48.102;19.682;2023-01-05T02:43:38;99555.19;;;7.59;100.00
70930;BME280;58588;48.102;19.682;2023-01-05T02:46:42;99557.88;;;7.67;100.00
70930;BME280;58588;48.102;19.682;2023-01-05T02:49:44;99559.41;;;7.70;100.00
70930;BME280;58588;48.102;19.682;2023-01-05T02:52:51;99555.41;;;7.74;100.00
70930;BME280;58588;48.102;19.682;2023-01-05T02:56:01;99537.59;;;7.73;100.00
70930;BME280;58588;48.102;19.682;2023-01-05T02:59:09;99551.00;;;7.73;100.00
70930;BME280;58588;48.102;19.682;2023-01-05T03:02:17;99551.38;;;7.78;100.00
70930;BME280;58588;48.102;19.682;2023-01-05T03:05:24;99545.19;;;7.94;100.00
70930;BME280;58588;48.102;19.682;2023-01-05T03:08:29;99541.16;;;7.98;100.00
70930;BME280;58588;48.102;19.682;2023-01-05T03:11:43;99524.53;;;8.02;100.00
70930;BME280;58588;48.102;19.682;2023-01-05T03:15:06;99527.38;;;8.01;100.00
70930;BME280;58588;48.102;19.682;2023-01-05T03:18:16;99507.41;;;8.03;100.00
70930;BME280;58588;48.102;19.682;2023-01-05T03:21:18;99501.19;;;8.19;100.00
70930;BME280;58588;48.102;19.682;2023-01-05T03:24:21;99519.16;;;8.02;100.00
70930;BME280;58588;48.102;19.682;2023-01-05T03:27:41;99500.88;;;8.06;100.00
70930;BME280;58588;48.102;19.682;2023-01-05T03:31:03;99505.22;;;8.15;100.00
70930;BME280;58588;48.102;19.682;2023-01-05T03:34:31;99471.50;;;8.13;100.00
70930;BME280;58588;48.102;19.682;2023-01-05T03:37:59;99481.38;;;8.20;100.00
70930;BME280;58588;48.102;19.682;2023-01-05T03:41:06;99483.06;;;8.13;100.00
70930;BME280;58588;48.102;19.682;2023-01-05T03:44:09;99488.41;;;8.21;100.00
70930;BME280;58588;48.102;19.682;2023-01-05T03:47:13;99476.16;;;8.27;100.00
70930;BME280;58588;48.102;19.682;2023-01-05T03:50:17;99479.16;;;8.32;100.00
70930;BME280;58588;48.102;19.682;2023-01-05T03:53:19;99459.34;;;8.33;100.00
70930;BME280;58588;48.102;19.682;2023-01-05T03:56:21;99471.66;;;8.36;100.00
70930;BME280;58588;48.102;19.682;2023-01-05T03:59:23;99485.72;;;8.38;100.00
70930;BME280;58588;48.102;19.682;2023-01-05T04:02:25;99461.88;;;8.35;100.00
70930;BME280;58588;48.102;19.682;2023-01-05T04:05:28;99459.88;;;8.37;100.00
70930;BME280;58588;48.102;19.682;2023-01-05T04:08:30;99448.97;;;8.30;100.00
70930;BME280;58588;48.102;19.682;2023-01-05T04:11:32;99450.13;;;8.44;100.00
70930;BME280;58588;48.102;19.682;2023-01-05T04:14:34;99440.06;;;8.46;100.00
70930;BME280;58588;48.102;19.682;2023-01-05T04:17:36;99428.69;;;8.36;100.00
70930;BME280;58588;48.102;19.682;2023-01-05T04:20:40;99436.00;;;8.33;100.00
70930;BME280;58588;48.102;19.682;2023-01-05T04:23:42;99428.13;;;8.32;100.00
70930;BME280;58588;48.102;19.682;2023-01-05T04:26:44;99423.97;;;8.21;100.00
70930;BME280;58588;48.102;19.682;2023-01-05T04:29:46;99427.00;;;8.18;100.00
70930;BME280;58588;48.102;19.682;2023-01-05T04:32:49;99422.50;;;8.02;100.00
70930;BME280;58588;48.102;19.682;2023-01-05T04:35:52;99418.16;;;8.01;100.00
70930;BME280;58588;48.102;19.682;2023-01-05T04:38:54;99423.88;;;7.98;100.00
70930;BME280;58588;48.102;19.682;2023-01-05T04:41:56;99413.00;;;7.92;100.00
70930;BME280;58588;48.102;19.682;2023-01-05T04:44:58;99409.78;;;7.96;100.00
70930;BME280;58588;48.102;19.682;2023-01-05T04:48:00;99413.97;;;7.99;100.00
70930;BME280;58588;48.102;19.682;2023-01-05T04:51:04;99384.16;;;7.77;100.00
70930;BME280;58588;48.102;19.682;2023-01-05T04:54:06;99370.09;;;7.75;100.00
70930;BME280;58588;48.102;19.682;2023-01-05T04:57:08;99363.34;;;7.79;100.00
70930;BME280;58588;48.102;19.682;2023-01-05T05:00:10;99390.88;;;7.82;100.00
70930;BME280;58588;48.102;19.682;2023-01-05T05:03:13;99386.66;;;7.79;100.00
70930;BME280;58588;48.102;19.682;2023-01-05T05:06:16;99398.13;;;7.57;100.00
70930;BME280;58588;48.102;19.682;2023-01-05T05:09:18;99400.63;;;7.74;100.00
70930;BME280;58588;48.102;19.682;2023-01-05T05:12:20;99405.47;;;7.71;100.00
70930;BME280;58588;48.102;19.682;2023-01-05T05:15:22;99404.09;;;7.83;100.00
70930;BME280;58588;48.102;19.682;2023-01-05T05:18:24;99379.31;;;7.65;100.00
70930;BME280;58588;48.102;19.682;2023-01-05T05:21:28;99404.09;;;7.83;100.00
70930;BME280;58588;48.102;19.682;2023-01-05T05:24:30;99396.56;;;7.78;100.00
70930;BME280;58588;48.102;19.682;2023-01-05T05:27:32;99386.38;;;7.74;100.00
70930;BME280;58588;48.102;19.682;2023-01-05T05:30:35;99408.13;;;7.87;100.00
70930;BME280;58588;48.102;19.682;2023-01-05T05:33:37;99375.91;;;7.95;100.00
70930;BME280;58588;48.102;19.682;2023-01-05T05:36:42;99410.44;;;8.07;100.00
70930;BME280;58588;48.102;19.682;2023-01-05T05:39:44;99399.66;;;8.15;100.00
70930;BME280;58588;48.102;19.682;2023-01-05T05:42:46;99387.47;;;7.96;100.00
70930;BME280;58588;48.102;19.682;2023-01-05T05:45:48;99389.31;;;7.95;100.00
70930;BME280;58588;48.102;19.682;2023-01-05T05:48:50;99380.75;;;8.00;100.00
70930;BME280;58588;48.102;19.682;2023-01-05T05:51:54;99357.66;;;7.83;100.00
70930;BME280;58588;48.102;19.682;2023-01-05T05:54:56;99371.41;;;7.88;100.00
70930;BME280;58588;48.102;19.682;2023-01-05T05:57:58;99362.69;;;7.86;100.00
70930;BME280;58588;48.102;19.682;2023-01-05T06:01:00;99356.97;;;7.89;100.00
70930;BME280;58588;48.102;19.682;2023-01-05T06:04:02;99346.38;;;7.95;100.00
70930;BME280;58588;48.102;19.682;2023-01-05T06:07:05;99358.06;;;8.11;100.00
70930;BME280;58588;48.102;19.682;2023-01-05T06:10:08;99341.97;;;8.02;100.00
70930;BME280;58588;48.102;19.682;2023-01-05T06:13:10;99336.97;;;7.99;100.00
70930;BME280;58588;48.102;19.682;2023-01-05T06:16:12;99353.53;;;8.11;100.00
70930;BME280;58588;48.102;19.682;2023-01-05T06:19:14;99339.44;;;8.09;100.00
70930;BME280;58588;48.102;19.682;2023-01-05T06:22:19;99340.81;;;8.05;100.00
70930;BME280;58588;48.102;19.682;2023-01-05T06:25:21;99346.78;;;8.23;100.00
70930;BME280;58588;48.102;19.682;2023-01-05T06:28:23;99351.84;;;8.18;100.00
70930;BME280;58588;48.102;19.682;2023-01-05T06:31:25;99346.78;;;8.15;100.00
70930;BME280;58588;48.102;19.682;2023-01-05T06:34:27;99341.03;;;8.26;100.00
70930;BME280;58588;48.102;19.682;2023-01-05T06:37:31;99355.13;;;8.37;100.00
70930;BME280;58588;48.102;19.682;2023-01-05T06:40:33;99328.44;;;8.27;100.00
70930;BME280;58588;48.102;19.682;2023-01-05T06:43:35;99352.06;;;8.48;100.00
70930;BME280;58588;48.102;19.682;2023-01-05T06:46:37;99359.59;;;8.52;100.00
70930;BME280;58588;48.102;19.682;2023-01-05T06:49:40;99357.63;;;8.46;100.00
70930;BME280;58588;48.102;19.682;2023-01-05T06:52:43;99361.59;;;8.50;100.00
70930;BME280;58588;48.102;19.682;2023-01-05T06:55:45;99353.41;;;8.52;100.00
70930;BME280;58588;48.102;19.682;2023-01-05T06:58:47;99352.31;;;8.61;100.00
70930;BME280;58588;48.102;19.682;2023-01-05T07:01:49;99324.97;;;8.57;100.00
70930;BME280;58588;48.102;19.682;2023-01-05T07:04:51;99327.81;;;8.64;100.00
70930;BME280;58588;48.102;19.682;2023-01-05T07:07:55;99295.91;;;8.61;100.00
70930;BME280;58588;48.102;19.682;2023-01-05T07:10:57;99291.66;;;8.67;100.00
70930;BME280;58588;48.102;19.682;2023-01-05T07:13:59;99316.03;;;8.65;100.00
70930;BME280;58588;48.102;19.682;2023-01-05T07:17:01;99306.13;;;8.66;100.00
70930;BME280;58588;48.102;19.682;2023-01-05T07:20:04;99303.84;;;8.77;100.00
70930;BME280;58588;48.102;19.682;2023-01-05T07:23:08;99292.44;;;8.75;100.00
70930;BME280;58588;48.102;19.682;2023-01-05T07:26:10;99282.06;;;8.72;100.00
70930;BME280;58588;48.102;19.682;2023-01-05T07:29:12;99283.19;;;8.78;100.00
70930;BME280;58588;48.102;19.682;2023-01-05T07:32:14;99273.19;;;8.87;100.00
70930;BME280;58588;48.102;19.682;2023-01-05T07:35:16;99269.88;;;8.84;100.00
70930;BME280;58588;48.102;19.682;2023-01-05T07:38:20;99262.50;;;9.01;100.00
70930;BME280;58588;48.102;19.682;2023-01-05T07:41:22;99249.97;;;8.94;100.00
70930;BME280;58588;48.102;19.682;2023-01-05T07:44:24;99267.34;;;9.06;100.00
70930;BME280;58588;48.102;19.682;2023-01-05T07:47:26;99273.56;;;9.21;100.00
70930;BME280;58588;48.102;19.682;2023-01-05T07:50:28;99262.91;;;9.28;100.00
70930;BME280;58588;48.102;19.682;2023-01-05T07:53:33;99256.69;;;9.27;100.00
70930;BME280;58588;48.102;19.682;2023-01-05T07:56:36;99268.69;;;9.39;100.00
70930;BME280;58588;48.102;19.682;2023-01-05T07:59:38;99262.09;;;9.27;100.00
70930;BME280;58588;48.102;19.682;2023-01-05T08:02:41;99273.66;;;9.28;100.00
70930;BME280;58588;48.102;19.682;2023-01-05T08:05:43;99279.53;;;9.31;100.00
70930;BME280;58588;48.102;19.682;2023-01-05T08:08:47;99274.25;;;9.38;100.00
70930;BME280;58588;48.102;19.682;2023-01-05T08:11:49;99265.34;;;9.37;100.00
70930;BME280;58588;48.102;19.682;2023-01-05T08:14:51;99264.19;;;9.17;100.00
70930;BME280;58588;48.102;19.682;2023-01-05T08:17:53;99260.97;;;9.22;100.00
70930;BME280;58588;48.102;19.682;2023-01-05T08:20:57;99271.91;;;9.20;100.00
70930;BME280;58588;48.102;19.682;2023-01-05T08:24:01;99273.88;;;9.26;100.00
70930;BME280;58588;48.102;19.682;2023-01-05T08:27:04;99259.78;;;9.24;100.00
70930;BME280;58588;48.102;19.682;2023-01-05T08:30:07;99268.09;;;9.29;100.00
70930;BME280;58588;48.102;19.682;2023-01-05T08:33:09;99252.34;;;9.26;100.00
70930;BME280;58588;48.102;19.682;2023-01-05T08:36:13;99260.22;;;9.28;100.00
70930;BME280;58588;48.102;19.682;2023-01-05T08:39:17;99258.22;;;9.30;100.00
70930;BME280;58588;48.102;19.682;2023-01-05T08:42:19;99261.06;;;9.28;100.00
70930;BME280;58588;48.102;19.682;2023-01-05T08:45:21;99255.56;;;9.22;100.00
70930;BME280;58588;48.102;19.682;2023-01-05T08:48:23;99263.41;;;9.31;100.00
70930;BME280;58588;48.102;19.682;2023-01-05T08:51:25;99263.69;;;9.36;100.00
70930;BME280;58588;48.102;19.682;2023-01-05T08:54:29;99254.31;;;9.32;100.00
70930;BME280;58588;48.102;19.682;2023-01-05T08:57:31;99245.31;;;9.25;100.00
70930;BME280;58588;48.102;19.682;2023-01-05T09:00:33;99270.91;;;9.36;100.00
70930;BME280;58588;48.102;19.682;2023-01-05T09:03:36;99263.19;;;9.18;100.00
70930;BME280;58588;48.102;19.682;2023-01-05T09:06:38;99299.03;;;9.10;100.00
70930;BME280;58588;48.102;19.682;2023-01-05T09:09:42;99308.25;;;9.16;100.00
70930;BME280;58588;48.102;19.682;2023-01-05T09:12:44;99301.84;;;9.17;100.00
70930;BME280;58588;48.102;19.682;2023-01-05T09:15:46;99287.63;;;9.08;100.00
70930;BME280;58588;48.102;19.682;2023-01-05T09:18:48;99286.19;;;9.21;100.00
70930;BME280;58588;48.102;19.682;2023-01-05T09:21:50;99296.75;;;9.22;100.00
70930;BME280;58588;48.102;19.682;2023-01-05T09:24:54;99290.25;;;9.17;100.00
70930;BME280;58588;48.102;19.682;2023-01-05T09:27:56;99301.25;;;9.30;100.00
70930;BME280;58588;48.102;19.682;2023-01-05T09:30:58;99287.94;;;9.14;100.00
70930;BME280;58588;48.102;19.682;2023-01-05T09:34:00;99301.06;;;9.31;100.00
70930;BME280;58588;48.102;19.682;2023-01-05T09:37:02;99305.13;;;9.27;100.00
70930;BME280;58588;48.102;19.682;2023-01-05T09:40:07;99303.53;;;9.18;100.00
70930;BME280;58588;48.102;19.682;2023-01-05T09:43:13;99297.38;;;9.09;100.00
70930;BME280;58588;48.102;19.682;2023-01-05T09:46:23;99272.59;;;8.99;100.00
70930;BME280;58588;48.102;19.682;2023-01-05T09:49:28;99280.94;;;9.04;100.00
70930;BME280;58588;48.102;19.682;2023-01-05T09:52:33;99298.31;;;9.17;100.00
70930;BME280;58588;48.102;19.682;2023-01-05T09:55:37;99319.72;;;9.10;100.00
70930;BME280;58588;48.102;19.682;2023-01-05T09:58:43;99307.00;;;9.04;100.00
70930;BME280;58588;48.102;19.682;2023-01-05T10:01:47;99281.66;;;8.98;100.00
70930;BME280;58588;48.102;19.682;2023-01-05T10:04:52;99289.59;;;9.15;100.00
70930;BME280;58588;48.102;19.682;2023-01-05T10:07:59;99247.88;;;9.19;100.00
70930;BME280;58588;48.102;19.682;2023-01-05T10:11:06;99253.56;;;9.24;100.00
70930;BME280;58588;48.102;19.682;2023-01-05T10:14:29;99256.69;;;9.27;100.00
70930;BME280;58588;48.102;19.682;2023-01-05T10:17:35;99243.78;;;9.23;100.00
70930;BME280;58588;48.102;19.682;2023-01-05T10:20:52;99238.59;;;9.21;100.00
70930;BME280;58588;48.102;19.682;2023-01-05T10:24:08;99233.81;;;9.31;100.00
70930;BME280;58588;48.102;19.682;2023-01-05T10:27:19;99201.50;;;9.17;100.00
70930;BME280;58588;48.102;19.682;2023-01-05T10:30:26;99196.50;;;9.28;100.00
70930;BME280;58588;48.102;19.682;2023-01-05T10:33:41;99189.75;;;9.18;100.00
70930;BME280;58588;48.102;19.682;2023-01-05T10:37:02;99191.56;;;9.17;100.00
70930;BME280;58588;48.102;19.682;2023-01-05T10:40:14;99186.03;;;9.19;100.00
70930;BME280;58588;48.102;19.682;2023-01-05T10:43:38;99204.03;;;9.18;100.00
70930;BME280;58588;48.102;19.682;2023-01-05T10:46:47;99211.81;;;9.28;100.00
70930;BME280;58588;48.102;19.682;2023-01-05T10:49:49;99205.50;;;9.35;100.00
70930;BME280;58588;48.102;19.682;2023-01-05T10:52:52;99188.06;;;9.31;100.00
70930;BME280;58588;48.102;19.682;2023-01-05T10:56:00;99175.09;;;9.20;100.00
70930;BME280;58588;48.102;19.682;2023-01-05T10:59:10;99169.31;;;9.23;100.00
70930;BME280;58588;48.102;19.682;2023-01-05T11:02:14;99215.56;;;9.42;100.00
70930;BME280;58588;48.102;19.682;2023-01-05T11:05:24;99224.16;;;9.52;100.00
70930;BME280;58588;48.102;19.682;2023-01-05T11:08:28;99229.09;;;9.48;100.00
70930;BME280;58588;48.102;19.682;2023-01-05T11:11:30;99223.44;;;9.43;100.00
70930;BME280;58588;48.102;19.682;2023-01-05T11:14:41;99202.34;;;9.32;100.00
70930;BME280;58588;48.102;19.682;2023-01-05T11:17:44;99213.94;;;9.47;100.00
70930;BME280;58588;48.102;19.682;2023-01-05T11:21:04;99207.34;;;9.35;100.00
70930;BME280;58588;48.102;19.682;2023-01-05T11:24:25;99194.84;;;9.27;100.00
70930;BME280;58588;48.102;19.682;2023-01-05T11:27:28;99184.72;;;9.29;100.00
70930;BME280;58588;48.102;19.682;2023-01-05T11:30:32;99217.03;;;9.44;100.00
70930;BME280;58588;48.102;19.682;2023-01-05T11:33:35;99192.53;;;9.39;100.00
70930;BME280;58588;48.102;19.682;2023-01-05T11:36:39;99218.03;;;9.43;100.00
70930;BME280;58588;48.102;19.682;2023-01-05T11:39:47;99216.75;;;9.54;100.00
70930;BME280;58588;48.102;19.682;2023-01-05T11:42:50;99201.34;;;9.48;100.00
70930;BME280;58588;48.102;19.682;2023-01-05T11:45:56;99190.56;;;9.62;100.00
70930;BME280;58588;48.102;19.682;2023-01-05T11:49:00;99187.31;;;9.67;100.00
70930;BME280;58588;48.102;19.682;2023-01-05T11:52:02;99182.00;;;9.74;100.00
70930;BME280;58588;48.102;19.682;2023-01-05T11:58:41;99162.84;;;9.83;100.00
70930;BME280;58588;48.102;19.682;2023-01-05T12:02:02;99165.09;;;9.80;100.00
70930;BME280;58588;48.102;19.682;2023-01-05T12:05:23;99154.63;;;9.85;100.00
70930;BME280;58588;48.102;19.682;2023-01-05T12:08:29;99149.03;;;9.86;100.00
70930;BME280;58588;48.102;19.682;2023-01-05T12:11:41;99169.34;;;9.89;100.00
70930;BME280;58588;48.102;19.682;2023-01-05T12:15:05;99174.56;;;9.76;100.00
70930;BME280;58588;48.102;19.682;2023-01-05T12:18:28;99171.25;;;9.59;100.00
70930;BME280;58588;48.102;19.682;2023-01-05T12:21:38;99191.84;;;9.81;100.00
70930;BME280;58588;48.102;19.682;2023-01-05T12:24:54;99184.06;;;9.72;100.00
70930;BME280;58588;48.102;19.682;2023-01-05T12:28:14;99180.16;;;9.74;100.00
70930;BME280;58588;48.102;19.682;2023-01-05T12:31:29;99197.88;;;9.69;100.00
70930;BME280;58588;48.102;19.682;2023-01-05T12:34:58;99178.50;;;9.58;100.00
70930;BME280;58588;48.102;19.682;2023-01-05T12:38:18;99182.13;;;9.65;100.00
70930;BME280;58588;48.102;19.682;2023-01-05T12:41:42;99201.53;;;9.61;100.00
70930;BME280;58588;48.102;19.682;2023-01-05T12:45:00;99198.34;;;9.57;100.00
70930;BME280;58588;48.102;19.682;2023-01-05T12:48:16;99174.81;;;9.45;100.00
70930;BME280;58588;48.102;19.682;2023-01-05T12:51:25;99202.09;;;9.42;100.00
70930;BME280;58588;48.102;19.682;2023-01-05T12:54:37;99187.88;;;9.62;100.00
70930;BME280;58588;48.102;19.682;2023-01-05T12:57:43;99180.00;;;9.61;100.00
70930;BME280;58588;48.102;19.682;2023-01-05T13:00:48;99162.06;;;9.68;100.00
70930;BME280;58588;48.102;19.682;2023-01-05T13:03:56;99171.44;;;9.57;100.00
70930;BME280;58588;48.102;19.682;2023-01-05T13:07:07;99161.47;;;9.87;100.00
70930;BME280;58588;48.102;19.682;2023-01-05T13:10:18;99151.56;;;10.09;100.00
70930;BME280;58588;48.102;19.682;2023-01-05T13:13:23;99140.59;;;10.11;100.00
70930;BME280;58588;48.102;19.682;2023-01-05T13:16:31;99149.34;;;10.34;100.00
70930;BME280;58588;48.102;19.682;2023-01-05T13:19:39;99161.16;;;10.33;100.00
70930;BME280;58588;48.102;19.682;2023-01-05T13:22:45;99164.69;;;10.19;100.00
70930;BME280;58588;48.102;19.682;2023-01-05T13:25:52;99190.38;;;10.15;100.00
70930;BME280;58588;48.102;19.682;2023-01-05T13:28:56;99180.63;;;10.14;100.00
70930;BME280;58588;48.102;19.682;2023-01-05T13:32:16;99183.94;;;10.16;100.00
70930;BME280;58588;48.102;19.682;2023-01-05T13:35:30;99184.59;;;10.18;100.00
70930;BME280;58588;48.102;19.682;2023-01-05T13:39:08;99186.25;;;10.34;100.00
70930;BME280;58588;48.102;19.682;2023-01-05T13:42:30;99197.91;;;10.05;100.00
70930;BME280;58588;48.102;19.682;2023-01-05T13:46:04;99193.69;;;10.32;100.00
70930;BME280;58588;48.102;19.682;2023-01-05T13:49:31;99201.59;;;10.18;100.00
70930;BME280;58588;48.102;19.682;2023-01-05T13:52:55;99199.91;;;10.17;100.00
70930;BME280;58588;48.102;19.682;2023-01-05T13:56:04;99202.16;;;10.29;100.00
70930;BME280;58588;48.102;19.682;2023-01-05T13:59:17;99195.69;;;10.08;100.00
70930;BME280;58588;48.102;19.682;2023-01-05T14:02:28;99206.53;;;10.15;100.00
70930;BME280;58588;48.102;19.682;2023-01-05T14:05:35;99187.13;;;10.05;100.00
70930;BME280;58588;48.102;19.682;2023-01-05T14:08:46;99210.41;;;10.12;100.00
70930;BME280;58588;48.102;19.682;2023-01-05T14:12:25;99212.69;;;10.09;100.00
70930;BME280;58588;48.102;19.682;2023-01-05T14:15:37;99198.97;;;9.89;100.00
70930;BME280;58588;48.102;19.682;2023-01-05T14:18:49;99219.97;;;9.79;100.00
70930;BME280;58588;48.102;19.682;2023-01-05T14:25:50;99221.19;;;9.61;100.00
70930;BME280;58588;48.102;19.682;2023-01-05T14:28:54;99218.41;;;9.70;100.00
70930;BME280;58588;48.102;19.682;2023-01-05T14:32:04;99203.75;;;9.43;100.00
70930;BME280;58588;48.102;19.682;2023-01-05T14:35:21;99209.44;;;9.48;100.00
70930;BME280;58588;48.102;19.682;2023-01-05T14:38:24;99235.84;;;9.59;100.00
70930;BME280;58588;48.102;19.682;2023-01-05T14:41:27;99246.25;;;9.62;100.00
70930;BME280;58588;48.102;19.682;2023-01-05T14:44:34;99216.94;;;9.37;100.00
70930;BME280;58588;48.102;19.682;2023-01-05T14:47:39;99238.91;;;9.26;100.00
70930;BME280;58588;48.102;19.682;2023-01-05T14:50:43;99237.22;;;9.25;100.00
70930;BME280;58588;48.102;19.682;2023-01-05T14:53:47;99239.81;;;9.33;100.00
70930;BME280;58588;48.102;19.682;2023-01-05T14:57:20;99246.59;;;9.29;100.00
70930;BME280;58588;48.102;19.682;2023-01-05T15:00:35;99265.53;;;9.36;100.00
70930;BME280;58588;48.102;19.682;2023-01-05T15:03:45;99243.16;;;9.35;100.00
70930;BME280;58588;48.102;19.682;2023-01-05T15:07:11;99263.34;;;9.54;100.00
70930;BME280;58588;48.102;19.682;2023-01-05T15:18:06;99257.28;;;9.52;100.00
70930;BME280;58588;48.102;19.682;2023-01-05T15:25:10;99247.25;;;9.46;100.00
70930;BME280;58588;48.102;19.682;2023-01-05T15:28:39;99251.41;;;9.34;100.00
70930;BME280;58588;48.102;19.682;2023-01-05T15:31:47;99266.09;;;9.31;100.00
70930;BME280;58588;48.102;19.682;2023-01-05T15:34:55;99261.03;;;9.14;100.00
70930;BME280;58588;48.102;19.682;2023-01-05T15:38:15;99239.09;;;8.87;100.00
70930;BME280;58588;48.102;19.682;2023-01-05T15:41:20;99244.19;;;8.82;100.00
70930;BME280;58588;48.102;19.682;2023-01-05T15:44:26;99250.84;;;8.86;100.00
70930;BME280;58588;48.102;19.682;2023-01-05T15:47:30;99256.00;;;8.73;100.00
70930;BME280;58588;48.102;19.682;2023-01-05T15:50:51;99254.34;;;8.72;100.00
70930;BME280;58588;48.102;19.682;2023-01-05T15:53:54;99264.59;;;8.68;100.00
70930;BME280;58588;48.102;19.682;2023-01-05T15:56:58;99261.81;;;8.62;100.00
70930;BME280;58588;48.102;19.682;2023-01-05T16:00:12;99261.91;;;8.68;100.00
70930;BME280;58588;48.102;19.682;2023-01-05T16:03:19;99248.25;;;8.55;100.00
70930;BME280;58588;48.102;19.682;2023-01-05T16:06:25;99258.81;;;8.56;100.00
70930;BME280;58588;48.102;19.682;2023-01-05T16:09:31;99255.16;;;8.49;100.00
70930;BME280;58588;48.102;19.682;2023-01-05T16:12:35;99236.28;;;8.35;100.00
70930;BME280;58588;48.102;19.682;2023-01-05T16:15:37;99256.59;;;8.37;100.00
70930;BME280;58588;48.102;19.682;2023-01-05T16:18:42;99244.69;;;8.40;100.00
70930;BME280;58588;48.102;19.682;2023-01-05T16:21:54;99251.66;;;8.49;100.00
70930;BME280;58588;48.102;19.682;2023-01-05T16:25:02;99249.91;;;8.56;100.00
70930;BME280;58588;48.102;19.682;2023-01-05T16:28:11;99244.53;;;8.56;100.00
70930;BME280;58588;48.102;19.682;2023-01-05T16:31:25;99248.03;;;8.65;100.00
70930;BME280;58588;48.102;19.682;2023-01-05T16:34:28;99243.53;;;8.57;100.00
70930;BME280;58588;48.102;19.682;2023-01-05T16:37:32;99250.03;;;8.63;100.00
70930;BME280;58588;48.102;19.682;2023-01-05T16:40:35;99261.28;;;8.66;100.00